createdAt,value
2022-11-28T00:00:46.601Z,75.77
2022-11-28T00:01:46.648Z,75.77
2022-11-28T00:02:46.768Z,75.77
2022-11-28T00:03:47.574Z,75.67
2022-11-28T00:04:46.545Z,75.57
2022-11-28T00:05:47.141Z,75.98
2022-11-28T00:06:47.549Z,75.36
2022-11-28T00:07:46.539Z,75.12
2022-11-28T00:08:46.525Z,75.43
2022-11-28T00:09:46.493Z,75.15
2022-11-28T00:10:46.492Z,74.74
2022-11-28T00:11:46.476Z,75.46
2022-11-28T00:12:46.462Z,75.36
2022-11-28T00:13:46.469Z,75.12
2022-11-28T00:14:46.510Z,75.53
2022-11-28T00:15:46.467Z,75.22
2022-11-28T00:16:46.449Z,74.81
2022-11-28T00:17:46.426Z,74.40
2022-11-28T00:18:46.487Z,74.33
2022-11-28T00:19:46.442Z,74.60
2022-11-28T00:20:46.401Z,74.60
2022-11-28T00:21:46.377Z,74.50
2022-11-28T00:22:46.371Z,74.91
2022-11-28T00:23:46.389Z,75.01
2022-11-28T00:24:46.344Z,74.74
2022-11-28T00:25:46.334Z,75.32
2022-11-28T00:26:46.351Z,75.32
2022-11-28T00:27:46.315Z,75.43
2022-11-28T00:28:46.321Z,75.74
2022-11-28T00:29:46.306Z,75.46
2022-11-28T00:30:46.346Z,76.39
2022-11-28T00:31:46.348Z,76.29
2022-11-28T00:32:46.272Z,76.29
2022-11-28T00:33:46.275Z,76.39
2022-11-28T00:34:46.327Z,76.81
2022-11-28T00:35:46.272Z,76.08
2022-11-28T00:36:46.275Z,76.29
2022-11-28T00:37:46.228Z,76.39
2022-11-28T00:38:46.250Z,75.63
2022-11-28T00:39:46.203Z,75.67
2022-11-28T00:40:46.228Z,76.29
2022-11-28T00:41:46.184Z,76.29
2022-11-28T00:42:46.178Z,75.77
2022-11-28T00:43:46.178Z,76.39
2022-11-28T00:44:46.179Z,75.57
2022-11-28T00:45:46.209Z,75.87
2022-11-28T00:46:46.151Z,76.39
2022-11-28T00:47:46.142Z,76.29
2022-11-28T00:48:46.129Z,76.29
2022-11-28T00:49:46.142Z,76.32
2022-11-28T00:50:46.203Z,76.84
2022-11-28T00:51:46.140Z,77.25
2022-11-28T00:52:46.085Z,77.32
2022-11-28T00:53:46.076Z,77.53
2022-11-28T00:54:46.058Z,77.46
2022-11-28T00:55:46.076Z,77.56
2022-11-28T00:56:46.086Z,77.67
2022-11-28T00:57:46.039Z,77.67
2022-11-28T00:58:46.019Z,77.77
2022-11-28T00:59:46.015Z,77.77
2022-11-28T01:00:46.068Z,77.63
2022-11-28T01:01:46.144Z,77.77
2022-11-28T01:02:46.079Z,77.32
2022-11-28T01:03:45.985Z,77.32
2022-11-28T01:04:45.963Z,77.42
2022-11-28T01:05:45.959Z,77.63
2022-11-28T01:06:46.036Z,77.32
2022-11-28T01:07:46.026Z,77.22
2022-11-28T01:08:45.920Z,77.22
2022-11-28T01:09:45.903Z,77.22
2022-11-28T01:10:45.900Z,76.77
2022-11-28T01:11:45.904Z,77.01
2022-11-28T01:12:45.891Z,77.32
2022-11-28T01:13:45.894Z,77.39
2022-11-28T01:14:45.907Z,77.22
2022-11-28T01:15:45.856Z,77.11
2022-11-28T01:16:45.907Z,77.42
2022-11-28T01:17:45.830Z,77.87
2022-11-28T01:18:45.837Z,77.67
2022-11-28T01:19:45.804Z,77.36
2022-11-28T01:20:45.814Z,77.25
2022-11-28T01:21:45.824Z,77.60
2022-11-28T01:22:45.870Z,77.67
2022-11-28T01:23:45.765Z,77.25
2022-11-28T01:24:45.802Z,77.56
2022-11-28T01:25:45.760Z,77.67
2022-11-28T01:26:45.759Z,77.53
2022-11-28T01:27:45.730Z,77.67
2022-11-28T01:28:45.781Z,77.53
2022-11-28T01:29:45.710Z,77.04
2022-11-28T01:30:45.745Z,77.56
2022-11-28T01:31:45.750Z,77.15
2022-11-28T01:32:45.691Z,77.56
2022-11-28T01:33:45.706Z,77.77
2022-11-28T01:34:45.671Z,77.67
2022-11-28T01:35:45.665Z,77.77
2022-11-28T01:36:45.647Z,77.87
2022-11-28T01:37:45.648Z,78.28
2022-11-28T01:38:45.728Z,77.67
2022-11-28T01:39:45.640Z,77.36
2022-11-28T01:40:45.652Z,77.46
2022-11-28T01:41:45.601Z,77.42
2022-11-28T01:42:45.633Z,77.36
2022-11-28T01:43:45.568Z,78.14
2022-11-28T01:44:45.557Z,77.42
2022-11-28T01:45:45.555Z,77.42
2022-11-28T01:46:45.650Z,77.22
2022-11-28T01:47:45.587Z,77.46
2022-11-28T01:48:45.525Z,77.46
2022-11-28T01:49:45.513Z,77.98
2022-11-28T01:50:45.504Z,77.77
2022-11-28T01:51:45.507Z,77.81
2022-11-28T01:52:45.498Z,78.49
2022-11-28T01:53:45.518Z,79.01
2022-11-28T01:54:45.554Z,78.94
2022-11-28T01:55:45.486Z,79.15
2022-11-28T01:56:45.470Z,79.32
2022-11-28T01:57:45.464Z,79.15
2022-11-28T01:58:45.451Z,79.15
2022-11-28T01:59:45.426Z,79.01
2022-11-28T02:00:45.482Z,78.80
2022-11-28T02:01:45.455Z,78.42
2022-11-28T02:02:45.428Z,78.49
2022-11-28T02:03:45.387Z,77.36
2022-11-28T02:04:45.411Z,77.87
2022-11-28T02:05:45.394Z,77.46
2022-11-28T02:06:45.348Z,77.67
2022-11-28T02:07:45.456Z,77.15
2022-11-28T02:08:45.345Z,77.53
2022-11-28T02:09:45.353Z,78.05
2022-11-28T02:10:45.456Z,77.32
2022-11-28T02:11:45.307Z,77.67
2022-11-28T02:12:45.315Z,77.56
2022-11-28T02:13:45.325Z,77.42
2022-11-28T02:14:45.300Z,77.15
2022-11-28T02:15:45.280Z,77.67
2022-11-28T02:16:45.376Z,77.56
2022-11-28T02:17:45.266Z,77.46
2022-11-28T02:18:50.304Z,77.36
2022-11-28T02:19:46.243Z,77.77
2022-11-28T02:20:45.238Z,77.46
2022-11-28T02:21:45.229Z,77.56
2022-11-28T02:22:45.186Z,77.56
2022-11-28T02:23:45.222Z,77.77
2022-11-28T02:24:45.212Z,76.94
2022-11-28T02:25:45.172Z,77.25
2022-11-28T02:26:45.260Z,76.94
2022-11-28T02:27:45.179Z,76.84
2022-11-28T02:28:45.150Z,77.46
2022-11-28T02:29:45.160Z,77.25
2022-11-28T02:30:45.139Z,77.39
2022-11-28T02:31:45.175Z,77.60
2022-11-28T02:32:45.098Z,77.77
2022-11-28T02:33:45.097Z,77.56
2022-11-28T02:34:47.155Z,76.84
2022-11-28T02:35:46.094Z,77.04
2022-11-28T02:36:45.081Z,76.94
2022-11-28T02:37:45.076Z,76.84
2022-11-28T02:38:45.056Z,77.11
2022-11-28T02:39:45.057Z,77.22
2022-11-28T02:40:45.053Z,76.87
2022-11-28T02:41:45.037Z,75.95
2022-11-28T02:42:45.106Z,75.53
2022-11-28T02:43:45.011Z,75.74
2022-11-28T02:44:45.311Z,75.43
2022-11-28T02:45:44.986Z,75.63
2022-11-28T02:46:45.043Z,75.57
2022-11-28T02:47:44.966Z,76.39
2022-11-28T02:48:44.964Z,76.39
2022-11-28T02:49:44.980Z,77.22
2022-11-28T02:50:44.979Z,77.42
2022-11-28T02:51:44.939Z,77.42
2022-11-28T02:52:44.925Z,77.63
2022-11-28T02:53:44.902Z,77.63
2022-11-28T02:54:45.050Z,77.32
2022-11-28T02:55:44.918Z,77.53
2022-11-28T02:56:44.881Z,77.63
2022-11-28T02:57:44.900Z,78.45
2022-11-28T02:58:44.942Z,77.42
2022-11-28T02:59:44.876Z,75.91
2022-11-28T03:00:44.984Z,76.84
2022-11-28T03:01:44.897Z,76.08
2022-11-28T03:02:44.831Z,75.87
2022-11-28T03:03:44.824Z,77.01
2022-11-28T03:04:45.053Z,77.01
2022-11-28T03:05:44.799Z,76.81
2022-11-28T03:06:44.799Z,76.15
2022-11-28T03:07:44.857Z,76.04
2022-11-28T03:08:44.781Z,77.18
2022-11-28T03:09:44.760Z,77.53
2022-11-28T03:10:44.807Z,77.28
2022-11-28T03:11:44.775Z,77.53
2022-11-28T03:12:44.731Z,77.32
2022-11-28T03:13:44.731Z,77.22
2022-11-28T03:14:44.961Z,77.53
2022-11-28T03:15:44.708Z,77.67
2022-11-28T03:16:44.764Z,77.73
2022-11-28T03:17:44.712Z,77.63
2022-11-28T03:19:16.545Z,77.63
2022-11-28T03:19:44.638Z,77.42
2022-11-28T03:20:44.625Z,77.32
2022-11-28T03:21:44.635Z,77.46
2022-11-28T03:22:44.617Z,78.05
2022-11-28T03:23:44.601Z,77.73
2022-11-28T03:24:44.844Z,77.63
2022-11-28T03:25:44.587Z,77.84
2022-11-28T03:26:44.585Z,77.53
2022-11-28T03:27:44.547Z,78.14
2022-11-28T03:28:44.561Z,77.32
2022-11-28T03:29:44.544Z,77.94
2022-11-28T03:30:44.592Z,77.32
2022-11-28T03:31:44.597Z,78.05
2022-11-28T03:32:44.549Z,77.63
2022-11-28T03:33:44.496Z,77.53
2022-11-28T03:34:44.783Z,77.84
2022-11-28T03:35:44.486Z,77.32
2022-11-28T03:36:44.475Z,77.53
2022-11-28T03:37:44.479Z,77.53
2022-11-28T03:38:44.459Z,78.59
2022-11-28T03:39:44.455Z,79.56
2022-11-28T03:40:44.452Z,80.29
2022-11-28T03:41:44.436Z,80.66
2022-11-28T03:42:44.408Z,81.01
2022-11-28T03:43:44.407Z,81.21
2022-11-28T03:44:44.679Z,80.39
2022-11-28T03:45:44.399Z,80.39
2022-11-28T03:46:44.521Z,81.32
2022-11-28T03:47:44.367Z,80.53
2022-11-28T03:48:44.392Z,81.05
2022-11-28T03:49:44.351Z,80.53
2022-11-28T03:50:44.335Z,80.11
2022-11-28T03:51:44.350Z,79.29
2022-11-28T03:52:44.324Z,79.60
2022-11-28T03:53:44.323Z,78.91
2022-11-28T03:54:44.611Z,79.43
2022-11-28T03:55:44.338Z,79.33
2022-11-28T03:56:44.277Z,79.02
2022-11-28T03:57:44.293Z,79.43
2022-11-28T03:58:44.265Z,79.33
2022-11-28T03:59:44.257Z,80.26
2022-11-28T04:00:44.290Z,79.74
2022-11-28T04:01:44.232Z,79.74
2022-11-28T04:02:44.401Z,79.43
2022-11-28T04:03:44.220Z,79.63
2022-11-28T04:04:44.458Z,79.19
2022-11-28T04:05:44.200Z,79.29
2022-11-28T04:06:44.225Z,78.67
2022-11-28T04:07:44.256Z,77.94
2022-11-28T04:08:44.180Z,77.50
2022-11-28T04:09:44.193Z,77.50
2022-11-28T04:10:44.168Z,78.11
2022-11-28T04:11:44.155Z,77.50
2022-11-28T04:12:44.140Z,77.70
2022-11-28T04:13:44.124Z,77.60
2022-11-28T04:14:44.435Z,77.91
2022-11-28T04:15:44.132Z,77.29
2022-11-28T04:16:45.587Z,77.60
2022-11-28T04:17:44.102Z,77.70
2022-11-28T04:18:44.162Z,77.36
2022-11-28T04:19:44.078Z,77.46
2022-11-28T04:20:44.087Z,77.67
2022-11-28T04:21:44.054Z,78.18
2022-11-28T04:22:44.050Z,77.98
2022-11-28T04:23:44.040Z,77.73
2022-11-28T04:24:44.259Z,77.32
2022-11-28T04:25:44.002Z,77.36
2022-11-28T04:26:44.013Z,77.56
2022-11-28T04:27:44.026Z,77.36
2022-11-28T04:28:43.997Z,76.70
2022-11-28T04:29:43.960Z,77.53
2022-11-28T04:30:43.958Z,77.42
2022-11-28T04:31:44.001Z,77.87
2022-11-28T04:32:43.952Z,77.42
2022-11-28T04:33:43.962Z,78.05
2022-11-28T04:34:44.277Z,77.94
2022-11-28T04:35:43.939Z,77.42
2022-11-28T04:36:43.911Z,78.25
2022-11-28T04:37:43.883Z,77.42
2022-11-28T04:38:43.901Z,77.25
2022-11-28T04:39:43.872Z,77.46
2022-11-28T04:40:43.854Z,77.63
2022-11-28T04:41:43.843Z,78.59
2022-11-28T04:42:44.983Z,79.32
2022-11-28T04:43:43.832Z,79.52
2022-11-28T04:44:44.117Z,78.91
2022-11-28T04:45:43.827Z,79.73
2022-11-28T04:46:43.813Z,80.46
2022-11-28T04:47:43.788Z,79.97
2022-11-28T04:48:43.788Z,80.18
2022-11-28T04:49:43.765Z,79.94
2022-11-28T04:50:43.856Z,80.49
2022-11-28T04:51:43.772Z,79.97
2022-11-28T04:52:43.729Z,80.25
2022-11-28T04:53:44.733Z,79.87
2022-11-28T04:54:43.864Z,79.66
2022-11-28T04:55:43.711Z,80.08
2022-11-28T04:56:43.711Z,80.60
2022-11-28T04:57:43.742Z,80.29
2022-11-28T04:58:43.721Z,80.49
2022-11-28T04:59:43.680Z,80.56
2022-11-28T05:00:43.757Z,80.56
2022-11-28T05:01:43.695Z,80.56
2022-11-28T05:02:43.652Z,79.01
2022-11-28T05:03:43.648Z,79.52
2022-11-28T05:04:43.804Z,79.22
2022-11-28T05:05:43.657Z,78.91
2022-11-28T05:06:43.689Z,79.22
2022-11-28T05:07:43.645Z,79.32
2022-11-28T05:08:43.601Z,79.87
2022-11-28T05:09:43.571Z,79.42
2022-11-28T05:10:43.572Z,79.22
2022-11-28T05:11:43.595Z,79.22
2022-11-28T05:12:43.546Z,79.52
2022-11-28T05:13:43.535Z,79.42
2022-11-28T05:14:43.784Z,79.42
2022-11-28T05:15:43.521Z,79.73
2022-11-28T05:16:43.663Z,78.94
2022-11-28T05:17:43.499Z,80.18
2022-11-28T05:18:43.492Z,80.32
2022-11-28T05:19:43.504Z,81.42
2022-11-28T05:20:43.519Z,81.32
2022-11-28T05:21:43.467Z,81.67
2022-11-28T05:22:43.554Z,81.67
2022-11-28T05:23:43.451Z,81.67
2022-11-28T05:24:43.518Z,81.87
2022-11-28T05:25:43.429Z,81.77
2022-11-28T05:26:43.426Z,81.77
2022-11-28T05:27:43.447Z,82.15
2022-11-28T05:28:43.398Z,81.98
2022-11-28T05:29:46.853Z,81.67
2022-11-28T05:30:43.382Z,81.32
2022-11-28T05:31:43.450Z,81.98
2022-11-28T05:32:43.408Z,81.84
2022-11-28T05:33:43.355Z,81.94
2022-11-28T05:34:43.532Z,81.73
2022-11-28T05:35:43.351Z,81.63
2022-11-28T05:36:43.325Z,81.80
2022-11-28T05:37:43.351Z,81.42
2022-11-28T05:38:43.378Z,80.60
2022-11-28T05:39:43.606Z,80.18
2022-11-28T05:40:43.322Z,79.77
2022-11-28T05:41:43.295Z,80.39
2022-11-28T05:42:44.304Z,80.39
2022-11-28T05:43:43.258Z,81.21
2022-11-28T05:44:43.239Z,80.90
2022-11-28T05:45:43.320Z,80.60
2022-11-28T05:46:43.232Z,81.11
2022-11-28T05:47:43.230Z,81.21
2022-11-28T05:48:43.217Z,81.32
2022-11-28T05:49:43.459Z,80.46
2022-11-28T05:50:43.208Z,80.15
2022-11-28T05:51:43.195Z,80.35
2022-11-28T05:52:43.181Z,80.04
2022-11-28T05:53:43.162Z,79.52
2022-11-28T05:54:43.222Z,79.01
2022-11-28T05:55:43.144Z,79.52
2022-11-28T05:56:43.154Z,79.32
2022-11-28T05:57:43.122Z,79.32
2022-11-28T05:58:43.114Z,79.42
2022-11-28T05:59:43.257Z,79.01
2022-11-28T06:00:43.115Z,79.42
2022-11-28T06:01:43.137Z,79.22
2022-11-28T06:02:43.099Z,80.60
2022-11-28T06:03:43.067Z,81.21
2022-11-28T06:04:43.100Z,80.70
2022-11-28T06:05:43.849Z,81.42
2022-11-28T06:06:44.035Z,81.46
2022-11-28T06:07:43.093Z,81.87
2022-11-28T06:08:43.019Z,82.18
2022-11-28T06:09:43.291Z,82.04
2022-11-28T06:10:43.096Z,82.50
2022-11-28T06:11:42.986Z,82.29
2022-11-28T06:12:42.989Z,82.15
2022-11-28T06:13:42.984Z,82.25
2022-11-28T06:14:42.973Z,82.25
2022-11-28T06:15:43.971Z,81.84
2022-11-28T06:16:42.987Z,81.84
2022-11-28T06:17:42.933Z,81.87
2022-11-28T06:18:42.911Z,82.04
2022-11-28T06:19:43.243Z,81.84
2022-11-28T06:20:42.911Z,82.56
2022-11-28T06:21:42.902Z,82.60
2022-11-28T06:22:42.886Z,82.25
2022-11-28T06:23:42.864Z,82.04
2022-11-28T06:24:43.858Z,81.32
2022-11-28T06:25:42.844Z,81.67
2022-11-28T06:26:42.947Z,81.77
2022-11-28T06:27:42.831Z,81.87
2022-11-28T06:28:42.831Z,81.98
2022-11-28T06:29:42.980Z,82.39
2022-11-28T06:30:42.820Z,81.87
2022-11-28T06:31:42.891Z,81.98
2022-11-28T06:32:42.777Z,81.98
2022-11-28T06:33:42.791Z,82.39
2022-11-28T06:34:42.762Z,82.60
2022-11-28T06:35:42.773Z,82.70
2022-11-28T06:36:42.782Z,82.80
2022-11-28T06:37:42.733Z,83.01
2022-11-28T06:38:42.742Z,83.32
2022-11-28T06:39:43.018Z,83.32
2022-11-28T06:40:42.710Z,83.42
2022-11-28T06:41:42.698Z,83.94
2022-11-28T06:42:42.766Z,83.32
2022-11-28T06:43:42.722Z,83.46
2022-11-28T06:44:42.682Z,83.67
2022-11-28T06:45:42.795Z,83.87
2022-11-28T06:46:42.658Z,84.08
2022-11-28T06:47:42.633Z,84.08
2022-11-28T06:48:42.633Z,83.71
2022-11-28T06:49:42.839Z,84.01
2022-11-28T06:50:42.616Z,83.77
2022-11-28T06:51:42.600Z,84.01
2022-11-28T06:52:42.611Z,83.67
2022-11-28T06:53:42.589Z,83.98
2022-11-28T06:54:42.617Z,83.73
2022-11-28T06:55:42.560Z,83.94
2022-11-28T06:56:42.563Z,83.94
2022-11-28T06:57:42.545Z,84.05
2022-11-28T06:58:42.616Z,83.63
2022-11-28T06:59:42.802Z,82.80
2022-11-28T07:00:42.559Z,82.70
2022-11-28T07:01:42.570Z,82.56
2022-11-28T07:02:42.632Z,82.18
2022-11-28T07:03:42.480Z,81.94
2022-11-28T07:04:42.494Z,81.63
2022-11-28T07:05:42.474Z,81.05
2022-11-28T07:06:42.514Z,80.90
2022-11-28T07:07:53.555Z,81.52
2022-11-28T07:08:43.450Z,81.11
2022-11-28T07:09:42.621Z,81.21
2022-11-28T07:10:42.423Z,81.87
2022-11-28T07:11:42.432Z,81.73
2022-11-28T07:12:42.401Z,81.67
2022-11-28T07:13:42.395Z,82.08
2022-11-28T07:14:42.472Z,82.04
2022-11-28T07:15:42.374Z,81.98
2022-11-28T07:16:42.430Z,81.77
2022-11-28T07:17:42.375Z,81.84
2022-11-28T07:18:42.348Z,81.84
2022-11-28T07:19:42.513Z,81.84
2022-11-28T07:20:42.324Z,81.73
2022-11-28T07:21:42.333Z,81.73
2022-11-28T07:22:42.307Z,81.73
2022-11-28T07:23:42.311Z,81.98
2022-11-28T07:24:42.292Z,82.08
2022-11-28T07:25:42.291Z,82.29
2022-11-28T07:26:42.278Z,82.29
2022-11-28T07:27:42.259Z,82.29
2022-11-28T07:28:42.243Z,82.29
2022-11-28T07:29:42.504Z,82.66
2022-11-28T07:30:42.295Z,82.45
2022-11-28T07:31:42.243Z,81.94
2022-11-28T07:32:42.207Z,81.84
2022-11-28T07:33:42.210Z,81.84
2022-11-28T07:34:43.861Z,81.11
2022-11-28T07:35:42.171Z,81.42
2022-11-28T07:36:42.198Z,80.97
2022-11-28T07:37:42.160Z,81.18
2022-11-28T07:38:42.143Z,80.87
2022-11-28T07:39:42.441Z,81.28
2022-11-28T07:40:42.127Z,80.35
2022-11-28T07:41:42.130Z,80.70
2022-11-28T07:42:42.111Z,80.35
2022-11-28T07:43:42.093Z,81.21
2022-11-28T07:44:42.065Z,81.42
2022-11-28T07:45:59.854Z,81.94
2022-11-28T07:46:44.175Z,82.50
2022-11-28T07:47:42.085Z,82.39
2022-11-28T07:48:42.042Z,83.07
2022-11-28T07:49:42.359Z,82.90
2022-11-28T07:50:42.034Z,82.76
2022-11-28T07:51:42.036Z,83.28
2022-11-28T07:52:42.062Z,82.87
2022-11-28T07:53:41.999Z,82.76
2022-11-28T07:54:41.981Z,82.76
2022-11-28T07:55:42.010Z,83.07
2022-11-28T07:57:11.811Z,83.28
2022-11-28T07:57:43.967Z,83.01
2022-11-28T07:58:41.955Z,83.63
2022-11-28T07:59:42.288Z,83.22
2022-11-28T08:00:41.940Z,83.32
2022-11-28T08:01:42.004Z,83.32
2022-11-28T08:02:41.919Z,83.53
2022-11-28T08:03:41.897Z,83.73
2022-11-28T08:04:48.591Z,83.42
2022-11-28T08:05:43.886Z,83.84
2022-11-28T08:06:41.887Z,83.84
2022-11-28T08:07:41.943Z,83.63
2022-11-28T08:08:41.858Z,83.11
2022-11-28T08:09:42.284Z,84.15
2022-11-28T08:10:41.849Z,84.05
2022-11-28T08:11:41.850Z,83.73
2022-11-28T08:12:41.817Z,83.63
2022-11-28T08:13:41.902Z,83.53
2022-11-28T08:14:42.223Z,83.53
2022-11-28T08:15:41.799Z,83.42
2022-11-28T08:16:41.844Z,83.32
2022-11-28T08:17:41.806Z,83.63
2022-11-28T08:18:41.756Z,83.63
2022-11-28T08:19:41.741Z,83.94
2022-11-28T08:20:41.741Z,84.11
2022-11-28T08:21:41.727Z,83.70
2022-11-28T08:22:41.736Z,83.39
2022-11-28T08:23:41.711Z,83.49
2022-11-28T08:24:42.002Z,83.45
2022-11-28T08:25:41.701Z,83.04
2022-11-28T08:26:41.709Z,83.04
2022-11-28T08:27:41.685Z,82.21
2022-11-28T08:31:17.607Z,81.90
2022-11-28T08:31:49.892Z,82.42
2022-11-28T08:32:49.891Z,82.83
2022-11-28T08:33:49.856Z,82.31
2022-11-28T08:34:49.841Z,81.90
2022-11-28T08:35:49.838Z,81.80
2022-11-28T08:36:49.828Z,81.80
2022-11-28T08:37:49.811Z,82.00
2022-11-28T08:39:03.491Z,81.59
2022-11-28T08:39:51.971Z,81.59
2022-11-28T08:40:50.909Z,81.38
2022-11-28T08:41:50.914Z,81.45
2022-11-28T08:42:50.898Z,81.07
2022-11-28T08:43:50.884Z,80.87
2022-11-28T08:45:22.793Z,81.18
2022-11-28T08:45:50.896Z,81.86
2022-11-28T08:46:50.955Z,81.49
2022-11-28T08:47:50.847Z,81.07
2022-11-28T08:48:50.836Z,81.35
2022-11-28T08:49:50.849Z,81.76
2022-11-28T08:50:50.825Z,81.76
2022-11-28T08:51:50.828Z,81.90
2022-11-28T08:52:50.833Z,82.00
2022-11-28T08:53:54.977Z,81.76
2022-11-28T08:54:51.776Z,81.76
2022-11-28T08:55:50.768Z,82.17
2022-11-28T08:56:51.768Z,82.00
2022-11-28T08:57:50.766Z,82.28
2022-11-28T08:58:50.730Z,81.96
2022-11-28T08:59:50.728Z,82.00
2022-11-28T09:00:50.743Z,81.35
2022-11-28T09:01:50.778Z,80.52
2022-11-28T09:02:50.709Z,80.52
2022-11-28T09:03:50.857Z,80.66
2022-11-28T09:04:50.684Z,81.24
2022-11-28T09:05:50.683Z,80.73
2022-11-28T09:06:50.711Z,80.48
2022-11-28T09:07:50.710Z,80.58
2022-11-28T09:08:50.638Z,80.90
2022-11-28T09:09:50.623Z,79.76
2022-11-28T09:10:50.651Z,79.66
2022-11-28T09:11:50.619Z,79.45
2022-11-28T09:12:50.626Z,79.45
2022-11-28T09:13:50.591Z,79.04
2022-11-28T09:14:50.583Z,79.00
2022-11-28T09:15:52.745Z,79.04
2022-11-28T09:16:51.644Z,79.00
2022-11-28T09:17:50.573Z,78.83
2022-11-28T09:18:50.526Z,78.80
2022-11-28T09:19:50.532Z,78.52
2022-11-28T09:20:50.562Z,77.91
2022-11-28T09:21:56.169Z,77.80
2022-11-28T09:22:51.507Z,78.38
2022-11-28T09:23:50.499Z,77.70
2022-11-28T09:24:50.490Z,77.39
2022-11-28T09:25:50.487Z,77.80
2022-11-28T09:26:50.474Z,78.73
2022-11-28T09:27:50.465Z,78.94
2022-11-28T09:28:50.446Z,78.83
2022-11-28T09:29:50.444Z,78.73
2022-11-28T09:30:50.470Z,78.94
2022-11-28T09:31:50.425Z,78.73
2022-11-28T09:32:50.404Z,79.14
2022-11-28T09:33:50.407Z,78.94
2022-11-28T09:34:50.406Z,78.63
2022-11-28T09:35:50.379Z,79.04
2022-11-28T09:36:50.374Z,78.69
2022-11-28T09:37:50.361Z,78.80
2022-11-28T09:38:50.376Z,78.59
2022-11-28T09:40:11.925Z,78.69
2022-11-28T09:40:52.322Z,77.76
2022-11-28T09:41:50.337Z,77.15
2022-11-28T09:42:50.309Z,77.25
2022-11-28T09:43:54.710Z,77.56
2022-11-28T09:44:51.291Z,77.31
2022-11-28T09:45:50.290Z,77.22
2022-11-28T09:46:50.293Z,76.97
2022-11-28T09:47:50.264Z,77.59
2022-11-28T09:48:50.257Z,77.08
2022-11-28T09:49:50.272Z,75.94
2022-11-28T09:50:50.248Z,77.08
2022-11-28T09:51:50.223Z,77.18
2022-11-28T09:52:50.286Z,77.08
2022-11-28T09:53:50.199Z,77.18
2022-11-28T09:54:50.247Z,77.38
2022-11-28T09:55:50.188Z,77.59
2022-11-28T09:56:50.170Z,76.90
2022-11-28T09:57:50.177Z,76.46
2022-11-28T09:58:50.153Z,76.97
2022-11-28T09:59:50.146Z,77.01
2022-11-28T10:00:54.163Z,76.18
2022-11-28T10:01:51.129Z,77.11
2022-11-28T10:02:50.121Z,77.22
2022-11-28T10:03:50.160Z,77.11
2022-11-28T10:04:50.227Z,77.18
2022-11-28T10:05:50.102Z,77.28
2022-11-28T10:06:50.092Z,77.08
2022-11-28T10:07:54.813Z,75.84
2022-11-28T10:08:52.050Z,75.94
2022-11-28T10:09:50.051Z,76.76
2022-11-28T10:10:50.050Z,76.11
2022-11-28T10:11:50.030Z,75.43
2022-11-28T10:12:50.041Z,75.81
2022-11-28T10:14:08.811Z,75.49
2022-11-28T10:14:52.011Z,75.60
2022-11-28T10:15:50.018Z,76.11
2022-11-28T10:16:50.012Z,75.39
2022-11-28T10:17:49.967Z,76.11
2022-11-28T10:18:49.954Z,75.49
2022-11-28T10:19:54.672Z,75.60
2022-11-28T10:20:51.973Z,76.11
2022-11-28T10:21:49.925Z,76.11
2022-11-28T10:22:49.922Z,75.70
2022-11-28T10:23:49.905Z,75.18
2022-11-28T10:24:49.899Z,75.29
2022-11-28T10:25:49.903Z,74.77
2022-11-28T10:26:49.867Z,74.57
2022-11-28T10:27:50.875Z,74.74
2022-11-28T10:28:49.860Z,73.40
2022-11-28T10:29:49.856Z,73.71
2022-11-28T10:30:49.884Z,74.53
2022-11-28T10:31:49.847Z,75.25
2022-11-28T10:32:49.817Z,74.46
2022-11-28T10:33:49.814Z,75.08
2022-11-28T10:34:49.794Z,74.16
2022-11-28T10:35:49.790Z,74.71
2022-11-28T10:36:49.837Z,74.71
2022-11-28T10:37:49.759Z,76.15
2022-11-28T10:38:49.776Z,75.49
2022-11-28T10:39:49.744Z,75.32
2022-11-28T10:40:49.736Z,75.84
2022-11-28T10:41:49.747Z,75.53
2022-11-28T10:42:49.720Z,75.43
2022-11-28T10:43:49.718Z,75.84
2022-11-28T10:44:49.698Z,75.53
2022-11-28T10:45:49.778Z,75.53
2022-11-28T10:46:49.698Z,75.63
2022-11-28T10:47:49.668Z,75.32
2022-11-28T10:48:49.664Z,75.94
2022-11-28T10:49:49.652Z,75.43
2022-11-28T10:50:49.643Z,75.70
2022-11-28T10:51:49.654Z,74.77
2022-11-28T10:52:49.631Z,74.26
2022-11-28T10:53:49.618Z,74.80
2022-11-28T10:54:49.606Z,74.88
2022-11-28T10:55:49.582Z,74.53
2022-11-28T10:56:49.603Z,74.67
2022-11-28T10:57:50.567Z,74.46
2022-11-28T10:58:49.564Z,74.05
2022-11-28T10:59:49.567Z,74.46
2022-11-28T11:00:49.543Z,73.33
2022-11-28T11:01:50.491Z,73.43
2022-11-28T11:02:49.536Z,74.95
2022-11-28T11:03:49.517Z,74.95
2022-11-28T11:04:49.542Z,74.53
2022-11-28T11:05:49.512Z,73.09
2022-11-28T11:07:07.597Z,74.08
2022-11-28T11:07:51.555Z,73.91
2022-11-28T11:08:49.463Z,73.61
2022-11-28T11:09:49.442Z,72.78
2022-11-28T11:10:49.433Z,73.36
2022-11-28T11:11:49.430Z,74.43
2022-11-28T11:12:49.441Z,73.40
2022-11-28T11:13:49.405Z,73.61
2022-11-28T11:14:49.402Z,74.95
2022-11-28T11:15:49.462Z,74.33
2022-11-28T11:16:49.382Z,74.36
2022-11-28T11:17:49.372Z,74.88
2022-11-28T11:18:49.383Z,75.29
2022-11-28T11:19:49.344Z,76.11
2022-11-28T11:20:49.332Z,75.49
2022-11-28T11:21:49.334Z,75.18
2022-11-28T11:22:49.311Z,75.05
2022-11-28T11:23:49.324Z,74.88
2022-11-28T11:24:49.305Z,74.46
2022-11-28T11:25:49.291Z,74.36
2022-11-28T11:26:49.284Z,74.46
2022-11-28T11:27:49.324Z,75.81
2022-11-28T11:28:49.269Z,74.98
2022-11-28T11:29:51.495Z,75.29
2022-11-28T11:30:50.286Z,75.08
2022-11-28T11:31:49.225Z,74.16
2022-11-28T11:32:51.609Z,74.77
2022-11-28T11:33:50.208Z,74.77
2022-11-28T11:34:49.207Z,74.46
2022-11-28T11:35:49.201Z,74.36
2022-11-28T11:36:49.171Z,75.18
2022-11-28T11:37:49.155Z,75.60
2022-11-28T11:38:49.456Z,74.77
2022-11-28T11:39:49.138Z,74.84
2022-11-28T11:40:49.153Z,74.33
2022-11-28T11:41:49.132Z,73.54
2022-11-28T11:42:49.105Z,74.57
2022-11-28T11:43:49.134Z,75.08
2022-11-28T11:44:49.097Z,74.46
2022-11-28T11:45:52.500Z,74.77
2022-11-28T11:46:49.132Z,74.46
2022-11-28T11:47:49.061Z,74.77
2022-11-28T11:48:49.111Z,74.98
2022-11-28T11:49:49.056Z,74.53
2022-11-28T11:50:49.022Z,74.88
2022-11-28T11:51:49.022Z,74.46
2022-11-28T11:52:49.012Z,74.84
2022-11-28T11:53:49.003Z,75.15
2022-11-28T11:54:49.021Z,74.74
2022-11-28T11:55:48.985Z,74.77
2022-11-28T11:56:53.568Z,74.88
2022-11-28T11:57:50.968Z,74.33
2022-11-28T11:58:48.949Z,73.40
2022-11-28T11:59:48.947Z,74.74
2022-11-28T12:00:48.961Z,74.84
2022-11-28T12:01:49.001Z,74.84
2022-11-28T12:02:48.984Z,74.22
2022-11-28T12:03:48.945Z,74.43
2022-11-28T12:04:53.847Z,74.43
2022-11-28T12:06:15.429Z,74.63
2022-11-28T12:06:50.885Z,74.12
2022-11-28T12:07:48.886Z,73.40
2022-11-28T12:08:48.864Z,74.88
2022-11-28T12:09:48.833Z,74.77
2022-11-28T12:10:48.847Z,74.98
2022-11-28T12:11:48.823Z,75.29
2022-11-28T12:12:48.812Z,75.60
2022-11-28T12:13:48.812Z,75.18
2022-11-28T12:14:48.812Z,75.70
2022-11-28T12:15:48.823Z,75.39
2022-11-28T12:16:48.763Z,74.77
2022-11-28T12:17:51.440Z,75.35
2022-11-28T12:18:48.784Z,75.29
2022-11-28T12:19:48.757Z,75.29
2022-11-28T12:20:48.736Z,75.56
2022-11-28T12:21:48.726Z,75.77
2022-11-28T12:22:48.725Z,74.95
2022-11-28T12:23:48.694Z,75.35
2022-11-28T12:24:48.879Z,75.81
2022-11-28T12:25:48.667Z,75.25
2022-11-28T12:26:48.659Z,74.77
2022-11-28T12:27:48.651Z,75.18
2022-11-28T12:28:48.650Z,75.60
2022-11-28T12:29:48.659Z,75.49
2022-11-28T12:30:48.625Z,76.04
2022-11-28T12:31:48.611Z,76.11
2022-11-28T12:32:48.595Z,75.29
2022-11-28T12:33:48.614Z,75.60
2022-11-28T12:34:48.583Z,75.81
2022-11-28T12:35:48.579Z,75.90
2022-11-28T12:36:48.564Z,76.11
2022-11-28T12:38:10.319Z,76.01
2022-11-28T12:38:50.568Z,75.32
2022-11-28T12:39:48.542Z,75.60
2022-11-28T12:40:48.532Z,75.39
2022-11-28T12:41:48.513Z,75.70
2022-11-28T12:42:48.515Z,76.11
2022-11-28T12:43:48.507Z,76.11
2022-11-28T12:44:48.518Z,75.39
2022-11-28T12:45:48.491Z,75.84
2022-11-28T12:46:48.499Z,76.73
2022-11-28T12:47:48.452Z,75.81
2022-11-28T12:48:52.998Z,75.90
2022-11-28T12:49:50.443Z,76.42
2022-11-28T12:50:48.437Z,75.49
2022-11-28T12:51:48.414Z,75.81
2022-11-28T12:52:48.461Z,75.29
2022-11-28T12:53:48.395Z,76.11
2022-11-28T12:54:48.390Z,76.11